Terminal Aerodrome Forecast
Issued by NWS North Platte, NE

Home | Current Version | Previous Version | Text Only | Print | Product List | Glossary On
Versions: 1 2 3 4 5 6 7 8 9 10 11 12 13 14 15 16
740
FTUS43 KLBF 241512 AAD
TAFLBF
TAF AMD
KLBF 241512Z 2415/2512 07010KT 3SM -FZDZSN BR OVC004
     FM241800 01011KT 3/4SM -SN OVC003
     FM242100 33016G26KT 1/2SM SN BLSN OVC008
     FM250100 35020G28KT 2SM -SN BLSN OVC008
     FM250500 34022G32KT 5SM BLSN OVC015=

USA.gov is the U.S. government's official web portal to all federal, state and local government web resources and services.